sensor_id;sensor_type;location;lat;lon;timestamp;temperature;humidity
69204;DHT22;56317;27.658;85.326;2023-04-01T00:01:51;10.90;99.90
69204;DHT22;56317;27.658;85.326;2023-04-01T00:04:19;10.70;99.90
69204;DHT22;56317;27.658;85.326;2023-04-01T00:06:47;10.70;99.90
69204;DHT22;56317;27.658;85.326;2023-04-01T00:09:14;10.60;99.90
69204;DHT22;56317;27.658;85.326;2023-04-01T00:11:44;10.50;99.90
69204;DHT22;56317;27.658;85.326;2023-04-01T00:14:20;10.40;99.90
69204;DHT22;56317;27.658;85.326;2023-04-01T00:16:48;10.40;99.90
69204;DHT22;56317;27.658;85.326;2023-04-01T00:19:15;10.40;99.90
69204;DHT22;56317;27.658;85.326;2023-04-01T00:21:42;10.40;99.90
69204;DHT22;56317;27.658;85.326;2023-04-01T00:24:09;10.40;99.90
69204;DHT22;56317;27.658;85.326;2023-04-01T00:26:37;10.40;99.90
69204;DHT22;56317;27.658;85.326;2023-04-01T00:29:04;10.40;99.90
69204;DHT22;56317;27.658;85.326;2023-04-01T00:31:31;10.40;99.90
69204;DHT22;56317;27.658;85.326;2023-04-01T00:33:59;10.50;99.90
69204;DHT22;56317;27.658;85.326;2023-04-01T00:36:26;10.50;99.90
69204;DHT22;56317;27.658;85.326;2023-04-01T00:38:53;10.60;99.90
69204;DHT22;56317;27.658;85.326;2023-04-01T00:41:23;10.60;99.90
69204;DHT22;56317;27.658;85.326;2023-04-01T00:43:51;10.60;99.90
69204;DHT22;56317;27.658;85.326;2023-04-01T00:46:19;10.70;99.90
69204;DHT22;56317;27.658;85.326;2023-04-01T00:48:50;10.70;99.90
69204;DHT22;56317;27.658;85.326;2023-04-01T00:51:18;10.70;99.90
69204;DHT22;56317;27.658;85.326;2023-04-01T00:53:50;10.70;99.90
69204;DHT22;56317;27.658;85.326;2023-04-01T00:56:24;10.80;99.90
69204;DHT22;56317;27.658;85.326;2023-04-01T00:58:59;10.80;99.90
69204;DHT22;56317;27.658;85.326;2023-04-01T01:01:28;10.80;99.90
69204;DHT22;56317;27.658;85.326;2023-04-01T01:03:56;10.90;99.90
69204;DHT22;56317;27.658;85.326;2023-04-01T01:07:04;10.90;99.90
69204;DHT22;56317;27.658;85.326;2023-04-01T01:09:47;10.90;99.90
69204;DHT22;56317;27.658;85.326;2023-04-01T01:15:06;11.10;99.90
69204;DHT22;56317;27.658;85.326;2023-04-01T01:17:39;11.20;99.90
69204;DHT22;56317;27.658;85.326;2023-04-01T01:35:13;12.40;99.90
69204;DHT22;56317;27.658;85.326;2023-04-01T01:37:30;12.50;99.90
69204;DHT22;56317;27.658;85.326;2023-04-01T01:40:07;12.70;99.90
69204;DHT22;56317;27.658;85.326;2023-04-01T01:42:39;13.00;99.90
69204;DHT22;56317;27.658;85.326;2023-04-01T01:45:08;13.10;99.90
69204;DHT22;56317;27.658;85.326;2023-04-01T01:47:37;13.30;99.90
69204;DHT22;56317;27.658;85.326;2023-04-01T01:50:05;13.40;99.90
69204;DHT22;56317;27.658;85.326;2023-04-01T01:52:34;13.70;99.90
69204;DHT22;56317;27.658;85.326;2023-04-01T01:55:01;13.80;99.90
69204;DHT22;56317;27.658;85.326;2023-04-01T01:57:37;14.00;99.90
69204;DHT22;56317;27.658;85.326;2023-04-01T02:00:08;14.10;99.90
69204;DHT22;56317;27.658;85.326;2023-04-01T02:02:41;14.10;99.90
69204;DHT22;56317;27.658;85.326;2023-04-01T02:05:11;14.10;99.90
69204;DHT22;56317;27.658;85.326;2023-04-01T02:07:43;14.00;99.90
69204;DHT22;56317;27.658;85.326;2023-04-01T02:10:11;14.00;99.90
69204;DHT22;56317;27.658;85.326;2023-04-01T02:12:39;14.00;99.90
69204;DHT22;56317;27.658;85.326;2023-04-01T02:15:12;14.10;99.90
69204;DHT22;56317;27.658;85.326;2023-04-01T02:17:44;14.20;99.90
69204;DHT22;56317;27.658;85.326;2023-04-01T02:20:19;14.40;99.90
69204;DHT22;56317;27.658;85.326;2023-04-01T02:22:55;14.50;99.90
69204;DHT22;56317;27.658;85.326;2023-04-01T02:25:29;14.70;99.90
69204;DHT22;56317;27.658;85.326;2023-04-01T02:27:58;14.90;99.90
69204;DHT22;56317;27.658;85.326;2023-04-01T02:30:29;15.10;99.90
69204;DHT22;56317;27.658;85.326;2023-04-01T02:32:59;15.30;99.90
69204;DHT22;56317;27.658;85.326;2023-04-01T02:35:29;15.60;99.90
69204;DHT22;56317;27.658;85.326;2023-04-01T02:38:06;15.80;99.90
69204;DHT22;56317;27.658;85.326;2023-04-01T02:41:02;16.00;99.90
69204;DHT22;56317;27.658;85.326;2023-04-01T02:43:29;16.30;99.90
69204;DHT22;56317;27.658;85.326;2023-04-01T02:45:56;16.50;99.90
69204;DHT22;56317;27.658;85.326;2023-04-01T02:48:23;16.70;99.90
69204;DHT22;56317;27.658;85.326;2023-04-01T02:50:51;16.80;99.90
69204;DHT22;56317;27.658;85.326;2023-04-01T02:53:18;16.80;99.90
69204;DHT22;56317;27.658;85.326;2023-04-01T02:55:48;16.90;99.90
69204;DHT22;56317;27.658;85.326;2023-04-01T02:58:17;17.00;99.90
69204;DHT22;56317;27.658;85.326;2023-04-01T03:00:45;17.20;99.90
69204;DHT22;56317;27.658;85.326;2023-04-01T03:03:13;17.40;99.90
69204;DHT22;56317;27.658;85.326;2023-04-01T03:05:40;17.50;99.90
69204;DHT22;56317;27.658;85.326;2023-04-01T03:08:07;17.70;99.90
69204;DHT22;56317;27.658;85.326;2023-04-01T03:10:35;17.90;99.90
69204;DHT22;56317;27.658;85.326;2023-04-01T03:13:02;18.10;99.90
69204;DHT22;56317;27.658;85.326;2023-04-01T03:15:29;18.30;99.90
69204;DHT22;56317;27.658;85.326;2023-04-01T03:17:56;18.50;99.90
69204;DHT22;56317;27.658;85.326;2023-04-01T03:20:23;18.70;99.90
69204;DHT22;56317;27.658;85.326;2023-04-01T03:22:50;18.80;99.90
69204;DHT22;56317;27.658;85.326;2023-04-01T03:25:18;18.90;99.90
69204;DHT22;56317;27.658;85.326;2023-04-01T03:27:45;19.10;99.90
69204;DHT22;56317;27.658;85.326;2023-04-01T03:30:13;19.20;99.90
69204;DHT22;56317;27.658;85.326;2023-04-01T03:32:40;19.40;99.90
69204;DHT22;56317;27.658;85.326;2023-04-01T03:35:07;19.60;99.90
69204;DHT22;56317;27.658;85.326;2023-04-01T03:37:45;19.80;99.90
69204;DHT22;56317;27.658;85.326;2023-04-01T03:40:19;19.90;99.90
69204;DHT22;56317;27.658;85.326;2023-04-01T03:42:46;20.00;99.90
69204;DHT22;56317;27.658;85.326;2023-04-01T03:45:22;20.20;99.90
69204;DHT22;56317;27.658;85.326;2023-04-01T03:47:49;20.50;99.90
69204;DHT22;56317;27.658;85.326;2023-04-01T03:50:17;20.70;99.90
69204;DHT22;56317;27.658;85.326;2023-04-01T03:52:45;21.00;99.90
69204;DHT22;56317;27.658;85.326;2023-04-01T03:55:13;21.40;99.90
69204;DHT22;56317;27.658;85.326;2023-04-01T03:57:40;21.90;99.90
69204;DHT22;56317;27.658;85.326;2023-04-01T04:00:07;22.20;99.90
69204;DHT22;56317;27.658;85.326;2023-04-01T04:02:35;22.50;99.90
69204;DHT22;56317;27.658;85.326;2023-04-01T04:05:02;22.60;99.90
69204;DHT22;56317;27.658;85.326;2023-04-01T04:07:29;22.30;99.90
69204;DHT22;56317;27.658;85.326;2023-04-01T04:09:56;22.30;99.90
69204;DHT22;56317;27.658;85.326;2023-04-01T04:12:23;22.40;99.90
69204;DHT22;56317;27.658;85.326;2023-04-01T04:14:51;22.80;99.90
69204;DHT22;56317;27.658;85.326;2023-04-01T04:17:18;23.20;99.90
69204;DHT22;56317;27.658;85.326;2023-04-01T04:19:45;23.30;97.90
69204;DHT22;56317;27.658;85.326;2023-04-01T04:22:12;23.60;98.30
69204;DHT22;56317;27.658;85.326;2023-04-01T04:24:39;23.90;98.30
69204;DHT22;56317;27.658;85.326;2023-04-01T04:27:06;24.20;97.60
69204;DHT22;56317;27.658;85.326;2023-04-01T04:29:33;24.30;95.50
69204;DHT22;56317;27.658;85.326;2023-04-01T04:32:01;24.20;93.60
69204;DHT22;56317;27.658;85.326;2023-04-01T04:34:28;23.90;92.10
69204;DHT22;56317;27.658;85.326;2023-04-01T04:36:55;23.80;93.20
69204;DHT22;56317;27.658;85.326;2023-04-01T04:39:22;23.70;91.40
69204;DHT22;56317;27.658;85.326;2023-04-01T04:41:49;23.50;91.20
69204;DHT22;56317;27.658;85.326;2023-04-01T04:44:17;23.70;91.60
69204;DHT22;56317;27.658;85.326;2023-04-01T04:46:44;24.00;90.70
69204;DHT22;56317;27.658;85.326;2023-04-01T04:49:11;24.20;87.10
69204;DHT22;56317;27.658;85.326;2023-04-01T04:51:39;24.50;84.60
69204;DHT22;56317;27.658;85.326;2023-04-01T04:54:07;25.00;83.00
69204;DHT22;56317;27.658;85.326;2023-04-01T04:56:34;25.40;81.30
69204;DHT22;56317;27.658;85.326;2023-04-01T04:59:02;25.90;85.30
69204;DHT22;56317;27.658;85.326;2023-04-01T05:01:29;26.20;81.00
69204;DHT22;56317;27.658;85.326;2023-04-01T05:03:57;26.90;79.00
69204;DHT22;56317;27.658;85.326;2023-04-01T05:06:24;27.20;75.00
69204;DHT22;56317;27.658;85.326;2023-04-01T05:08:52;27.80;74.80
69204;DHT22;56317;27.658;85.326;2023-04-01T05:11:20;28.60;69.90
69204;DHT22;56317;27.658;85.326;2023-04-01T05:13:47;29.00;66.20
69204;DHT22;56317;27.658;85.326;2023-04-01T05:16:17;29.40;66.80
69204;DHT22;56317;27.658;85.326;2023-04-01T05:18:45;29.60;66.70
69204;DHT22;56317;27.658;85.326;2023-04-01T05:21:14;29.70;63.00
69204;DHT22;56317;27.658;85.326;2023-04-01T05:23:42;29.80;62.50
69204;DHT22;56317;27.658;85.326;2023-04-01T05:26:12;29.60;60.30
69204;DHT22;56317;27.658;85.326;2023-04-01T05:28:40;29.40;59.70
69204;DHT22;56317;27.658;85.326;2023-04-01T05:31:08;29.40;59.60
69204;DHT22;56317;27.658;85.326;2023-04-01T05:33:35;29.30;58.70
69204;DHT22;56317;27.658;85.326;2023-04-01T05:36:11;28.60;57.70
69204;DHT22;56317;27.658;85.326;2023-04-01T05:38:39;28.20;59.30
69204;DHT22;56317;27.658;85.326;2023-04-01T05:41:06;28.30;60.90
69204;DHT22;56317;27.658;85.326;2023-04-01T05:43:36;28.10;62.20
69204;DHT22;56317;27.658;85.326;2023-04-01T05:46:04;27.60;61.40
69204;DHT22;56317;27.658;85.326;2023-04-01T05:48:32;27.10;61.20
69204;DHT22;56317;27.658;85.326;2023-04-01T05:50:59;26.40;61.30
69204;DHT22;56317;27.658;85.326;2023-04-01T05:53:30;25.90;65.00
69204;DHT22;56317;27.658;85.326;2023-04-01T05:56:01;25.50;64.30
69204;DHT22;56317;27.658;85.326;2023-04-01T05:58:29;25.00;65.10
69204;DHT22;56317;27.658;85.326;2023-04-01T06:01:07;24.20;67.40
69204;DHT22;56317;27.658;85.326;2023-04-01T06:03:38;23.70;69.40
69204;DHT22;56317;27.658;85.326;2023-04-01T06:06:18;23.40;67.30
69204;DHT22;56317;27.658;85.326;2023-04-01T06:08:46;22.90;68.70
69204;DHT22;56317;27.658;85.326;2023-04-01T06:25:04;18.50;81.10
69204;DHT22;56317;27.658;85.326;2023-04-01T06:27:46;18.10;83.00
69204;DHT22;56317;27.658;85.326;2023-04-01T06:30:38;17.80;85.10
69204;DHT22;56317;27.658;85.326;2023-04-01T06:33:11;17.70;84.70
69204;DHT22;56317;27.658;85.326;2023-04-01T06:44:31;18.30;82.70
69204;DHT22;56317;27.658;85.326;2023-04-01T06:55:58;19.40;80.00
69204;DHT22;56317;27.658;85.326;2023-04-01T06:58:34;19.50;81.80
69204;DHT22;56317;27.658;85.326;2023-04-01T07:01:13;19.70;82.50
69204;DHT22;56317;27.658;85.326;2023-04-01T07:03:44;20.10;84.00
69204;DHT22;56317;27.658;85.326;2023-04-01T07:09:16;21.10;81.10
69204;DHT22;56317;27.658;85.326;2023-04-01T07:11:45;21.40;82.00
69204;DHT22;56317;27.658;85.326;2023-04-01T07:17:04;22.00;81.10
69204;DHT22;56317;27.658;85.326;2023-04-01T07:19:42;22.20;80.70
69204;DHT22;56317;27.658;85.326;2023-04-01T07:24:43;23.30;79.30
69204;DHT22;56317;27.658;85.326;2023-04-01T07:27:13;24.20;76.80
69204;DHT22;56317;27.658;85.326;2023-04-01T07:29:41;25.60;73.20
69204;DHT22;56317;27.658;85.326;2023-04-01T07:32:20;27.20;70.60
69204;DHT22;56317;27.658;85.326;2023-04-01T07:40:58;31.00;58.30
69204;DHT22;56317;27.658;85.326;2023-04-01T07:44:03;32.50;59.70
69204;DHT22;56317;27.658;85.326;2023-04-01T07:47:17;34.90;55.00
69204;DHT22;56317;27.658;85.326;2023-04-01T07:55:17;34.10;49.60
69204;DHT22;56317;27.658;85.326;2023-04-01T07:57:57;32.30;49.60
69204;DHT22;56317;27.658;85.326;2023-04-01T08:11:29;28.30;59.40
69204;DHT22;56317;27.658;85.326;2023-04-01T08:23:00;25.40;63.30
69204;DHT22;56317;27.658;85.326;2023-04-01T08:25:31;24.50;65.90
69204;DHT22;56317;27.658;85.326;2023-04-01T08:30:47;23.60;69.50
69204;DHT22;56317;27.658;85.326;2023-04-01T08:36:16;22.00;73.40
69204;DHT22;56317;27.658;85.326;2023-04-01T08:38:52;21.30;75.50
69204;DHT22;56317;27.658;85.326;2023-04-01T08:55:44;19.10;88.90
69204;DHT22;56317;27.658;85.326;2023-04-01T09:04:32;18.70;83.70
69204;DHT22;56317;27.658;85.326;2023-04-01T09:10:04;18.60;81.60
69204;DHT22;56317;27.658;85.326;2023-04-01T09:15:42;18.30;87.80
69204;DHT22;56317;27.658;85.326;2023-04-01T09:27:04;17.20;93.10
69204;DHT22;56317;27.658;85.326;2023-04-01T09:34:54;15.70;99.90
69204;DHT22;56317;27.658;85.326;2023-04-01T09:37:41;15.20;99.90
69204;DHT22;56317;27.658;85.326;2023-04-01T09:40:18;14.70;99.90
69204;DHT22;56317;27.658;85.326;2023-04-01T09:43:13;14.40;99.90
69204;DHT22;56317;27.658;85.326;2023-04-01T09:48:45;13.80;99.90
69204;DHT22;56317;27.658;85.326;2023-04-01T09:51:23;13.70;99.90
69204;DHT22;56317;27.658;85.326;2023-04-01T10:05:41;13.00;99.90
69204;DHT22;56317;27.658;85.326;2023-04-01T10:08:36;12.90;99.90
69204;DHT22;56317;27.658;85.326;2023-04-01T10:14:04;12.60;99.90
69204;DHT22;56317;27.658;85.326;2023-04-01T10:36:50;13.40;99.90
69204;DHT22;56317;27.658;85.326;2023-04-01T11:26:50;14.30;99.90
69204;DHT22;56317;27.658;85.326;2023-04-01T11:32:09;14.10;99.90
69204;DHT22;56317;27.658;85.326;2023-04-01T11:43:11;13.50;99.90
69204;DHT22;56317;27.658;85.326;2023-04-01T11:45:55;13.50;99.90
69204;DHT22;56317;27.658;85.326;2023-04-01T11:59:30;13.20;99.90
69204;DHT22;56317;27.658;85.326;2023-04-01T12:02:18;13.20;99.90
69204;DHT22;56317;27.658;85.326;2023-04-01T12:05:20;13.20;99.90
69204;DHT22;56317;27.658;85.326;2023-04-01T12:10:51;13.10;99.90
